createdAt,value
2022-11-20T00:01:08.122Z,2.20
2022-11-20T00:02:10.589Z,2.30
2022-11-20T00:03:14.552Z,1.83
2022-11-20T00:04:19.438Z,2.53
2022-11-20T00:05:22.156Z,2.45
2022-11-20T00:06:26.008Z,2.50
2022-11-20T00:07:28.653Z,3.35
2022-11-20T00:08:32.262Z,3.13
2022-11-20T00:09:34.596Z,2.97
2022-11-20T00:10:38.617Z,2.90
2022-11-20T00:11:40.905Z,3.78
2022-11-20T00:12:44.168Z,3.05
2022-11-20T00:13:47.252Z,3.60
2022-11-20T00:14:50.554Z,3.30
2022-11-20T00:15:58.682Z,3.78
2022-11-20T00:17:02.091Z,3.38
2022-11-20T00:18:04.378Z,3.60
2022-11-20T00:19:07.626Z,3.83
2022-11-20T00:20:12.788Z,2.78
2022-11-20T00:21:18.286Z,2.47
2022-11-20T00:22:20.522Z,2.50
2022-11-20T00:23:23.840Z,2.70
2022-11-20T00:24:26.170Z,2.22
2022-11-20T00:25:29.525Z,2.30
2022-11-20T00:26:31.767Z,3.67
2022-11-20T00:27:35.257Z,3.70
2022-11-20T00:28:38.143Z,2.78
2022-11-20T00:29:41.629Z,2.80
2022-11-20T00:30:44.078Z,2.50
2022-11-20T00:31:47.570Z,2.75
2022-11-20T00:32:49.928Z,2.30
2022-11-20T00:33:53.956Z,2.88
2022-11-20T00:34:56.465Z,2.28
2022-11-20T00:36:05.024Z,2.97
2022-11-20T00:37:07.164Z,3.17
2022-11-20T00:38:10.307Z,3.67
2022-11-20T00:39:12.671Z,3.30
2022-11-20T00:40:16.098Z,3.42
2022-11-20T00:41:18.372Z,2.78
2022-11-20T00:42:21.882Z,2.60
2022-11-20T00:43:24.200Z,2.63
2022-11-20T00:44:27.568Z,2.00
2022-11-20T00:45:29.932Z,2.03
2022-11-20T00:46:33.405Z,2.30
2022-11-20T00:47:35.610Z,2.22
2022-11-20T00:48:39.085Z,2.33
2022-11-20T00:49:41.257Z,2.53
2022-11-20T00:50:44.583Z,2.42
2022-11-20T00:51:48.439Z,2.80
2022-11-20T00:52:51.623Z,2.53
2022-11-20T00:53:56.595Z,3.53
2022-11-20T00:54:59.909Z,2.20
2022-11-20T00:56:04.392Z,3.13
2022-11-20T00:57:07.654Z,2.60
2022-11-20T00:58:14.126Z,2.58
2022-11-20T00:59:17.840Z,2.90
2022-11-20T01:00:20.189Z,2.65
2022-11-20T01:01:26.374Z,2.30
2022-11-20T01:02:28.701Z,2.08
2022-11-20T01:03:33.747Z,2.20
2022-11-20T01:04:35.926Z,2.80
2022-11-20T01:05:39.321Z,2.10
2022-11-20T01:06:41.572Z,2.30
2022-11-20T01:07:46.344Z,2.60
2022-11-20T01:08:50.277Z,2.42
2022-11-20T01:09:53.672Z,2.10
2022-11-20T01:11:00.645Z,2.58
2022-11-20T01:12:03.888Z,2.33
2022-11-20T01:13:25.886Z,2.10
2022-11-20T01:14:29.235Z,2.65
2022-11-20T01:15:31.477Z,2.75
2022-11-20T01:16:37.203Z,2.08
2022-11-20T01:17:39.496Z,2.38
2022-11-20T01:18:44.748Z,2.70
2022-11-20T01:19:50.302Z,2.78
2022-11-20T01:20:53.614Z,4.97
2022-11-20T01:21:57.284Z,4.20
2022-11-20T01:23:00.852Z,5.30
2022-11-20T01:24:05.013Z,4.63
2022-11-20T01:25:07.672Z,4.68
2022-11-20T01:26:12.712Z,2.85
2022-11-20T01:27:15.962Z,2.40
2022-11-20T01:28:18.593Z,2.20
2022-11-20T01:29:24.365Z,2.67
2022-11-20T01:30:26.869Z,2.85
2022-11-20T01:31:31.604Z,2.65
2022-11-20T01:32:33.980Z,3.25
2022-11-20T01:33:37.404Z,3.25
2022-11-20T01:34:39.834Z,4.10
2022-11-20T01:35:43.048Z,2.70
2022-11-20T01:36:45.650Z,2.53
2022-11-20T01:37:49.159Z,2.80
2022-11-20T01:38:54.588Z,2.47
2022-11-20T01:39:58.067Z,2.43
2022-11-20T01:41:00.416Z,2.20
2022-11-20T01:42:21.538Z,2.00
2022-11-20T01:43:24.043Z,2.00
2022-11-20T01:44:51.245Z,2.80
2022-11-20T01:46:15.634Z,1.95
2022-11-20T01:47:21.464Z,2.10
2022-11-20T01:48:27.439Z,1.70
2022-11-20T01:49:35.710Z,1.80
2022-11-20T01:50:39.204Z,1.92
2022-11-20T01:51:45.561Z,2.70
2022-11-20T01:52:53.471Z,2.08
2022-11-20T01:54:01.313Z,2.20
2022-11-20T01:55:08.775Z,2.65
2022-11-20T01:56:14.931Z,1.90
2022-11-20T01:57:21.603Z,2.05
2022-11-20T01:58:29.865Z,2.10
2022-11-20T01:59:33.349Z,2.55
2022-11-20T02:00:36.050Z,2.97
2022-11-20T02:01:40.291Z,3.00
2022-11-20T02:02:47.148Z,2.37
2022-11-20T02:03:51.775Z,2.50
2022-11-20T02:04:58.548Z,2.78
2022-11-20T02:06:11.013Z,2.58
2022-11-20T02:07:13.908Z,2.30
2022-11-20T02:08:18.330Z,1.92
2022-11-20T02:09:22.403Z,1.60
2022-11-20T02:10:26.207Z,2.20
2022-11-20T02:11:29.225Z,2.10
2022-11-20T02:12:49.907Z,1.45
2022-11-20T02:13:53.371Z,1.83
2022-11-20T02:14:55.680Z,1.52
2022-11-20T02:15:58.110Z,1.70
2022-11-20T02:17:01.259Z,1.95
2022-11-20T02:18:03.784Z,1.67
2022-11-20T02:19:12.152Z,1.73
2022-11-20T02:20:14.693Z,1.40
2022-11-20T02:21:27.593Z,1.77
2022-11-20T02:22:35.434Z,1.23
2022-11-20T02:23:41.852Z,1.38
2022-11-20T02:24:47.680Z,1.63
2022-11-20T02:25:53.755Z,1.25
2022-11-20T02:27:01.309Z,1.63
2022-11-20T02:28:04.135Z,1.80
2022-11-20T02:29:07.707Z,1.35
2022-11-20T02:30:12.237Z,1.40
2022-11-20T02:31:15.477Z,2.15
2022-11-20T02:32:22.080Z,1.33
2022-11-20T02:33:25.667Z,1.83
2022-11-20T02:34:27.974Z,1.35
2022-11-20T02:35:47.487Z,1.23
2022-11-20T02:36:50.843Z,1.00
2022-11-20T02:37:57.236Z,1.40
2022-11-20T02:38:59.570Z,1.40
2022-11-20T02:40:04.930Z,0.98
2022-11-20T02:41:07.157Z,0.80
2022-11-20T02:42:10.475Z,1.33
2022-11-20T02:43:13.064Z,1.08
2022-11-20T02:44:16.287Z,1.00
2022-11-20T02:45:18.667Z,0.98
2022-11-20T02:46:22.105Z,1.00
2022-11-20T02:47:24.390Z,1.10
2022-11-20T02:48:30.215Z,1.50
2022-11-20T02:49:35.836Z,1.10
2022-11-20T02:50:41.011Z,1.50
2022-11-20T02:51:44.261Z,1.25
2022-11-20T02:52:46.420Z,1.02
2022-11-20T02:53:49.805Z,1.10
2022-11-20T02:54:52.124Z,1.30
2022-11-20T02:55:56.724Z,1.25
2022-11-20T02:56:58.969Z,1.10
2022-11-20T02:58:02.264Z,1.25
2022-11-20T02:59:05.628Z,1.10
2022-11-20T03:00:10.138Z,1.20
2022-11-20T03:01:12.384Z,1.10
2022-11-20T03:02:16.299Z,1.30
2022-11-20T03:03:18.569Z,0.90
2022-11-20T03:04:22.360Z,1.20
2022-11-20T03:05:24.610Z,1.10
2022-11-20T03:06:27.995Z,1.10
2022-11-20T03:07:30.300Z,1.07
2022-11-20T03:08:33.858Z,0.93
2022-11-20T03:09:36.107Z,1.00
2022-11-20T03:10:39.379Z,1.13
2022-11-20T03:11:43.495Z,1.00
2022-11-20T03:12:46.820Z,1.30
2022-11-20T03:13:50.086Z,1.13
2022-11-20T03:14:53.411Z,1.13
2022-11-20T03:15:56.905Z,1.02
2022-11-20T03:16:59.326Z,0.90
2022-11-20T03:18:02.740Z,1.20
2022-11-20T03:19:06.232Z,1.00
2022-11-20T03:20:10.186Z,1.40
2022-11-20T03:21:15.128Z,1.10
2022-11-20T03:22:17.527Z,0.88
2022-11-20T03:23:21.056Z,0.90
2022-11-20T03:24:23.324Z,1.00
2022-11-20T03:25:26.702Z,1.00
2022-11-20T03:26:29.579Z,0.90
2022-11-20T03:27:36.683Z,1.00
2022-11-20T03:28:39.225Z,1.17
2022-11-20T03:29:42.703Z,0.90
2022-11-20T03:30:44.908Z,1.05
2022-11-20T03:31:48.252Z,1.02
2022-11-20T03:32:50.459Z,1.00
2022-11-20T03:33:53.824Z,0.90
2022-11-20T03:34:56.007Z,1.10
2022-11-20T03:36:03.842Z,0.90
2022-11-20T03:37:07.128Z,1.05
2022-11-20T03:38:09.380Z,1.00
2022-11-20T03:39:13.094Z,1.13
2022-11-20T03:40:15.595Z,0.98
2022-11-20T03:41:20.787Z,1.13
2022-11-20T03:42:41.352Z,1.00
2022-11-20T03:43:49.953Z,1.00
2022-11-20T03:44:52.206Z,0.95
2022-11-20T03:45:55.667Z,1.27
2022-11-20T03:46:57.879Z,0.80
2022-11-20T03:48:01.208Z,0.88
2022-11-20T03:49:04.025Z,1.00
2022-11-20T03:50:08.132Z,1.00
2022-11-20T03:51:12.288Z,0.90
2022-11-20T03:52:15.702Z,1.10
2022-11-20T03:53:18.344Z,1.05
2022-11-20T03:54:21.741Z,1.05
2022-11-20T03:55:24.195Z,0.95
2022-11-20T03:56:28.964Z,0.90
2022-11-20T03:57:31.125Z,0.88
2022-11-20T03:58:35.530Z,0.85
2022-11-20T03:59:39.250Z,1.05
2022-11-20T04:00:42.616Z,1.10
2022-11-20T04:01:49.304Z,0.90
2022-11-20T04:02:52.975Z,1.10
2022-11-20T04:03:57.122Z,1.10
2022-11-20T04:05:00.496Z,1.02
2022-11-20T04:06:04.700Z,1.00
2022-11-20T04:07:08.495Z,0.90
2022-11-20T04:08:10.937Z,1.30
2022-11-20T04:09:15.532Z,1.10
2022-11-20T04:10:18.514Z,1.05
2022-11-20T04:11:23.543Z,1.00
2022-11-20T04:12:26.105Z,1.23
2022-11-20T04:13:29.539Z,0.85
2022-11-20T04:14:31.918Z,1.45
2022-11-20T04:15:38.459Z,1.13
2022-11-20T04:16:41.441Z,0.90
2022-11-20T04:17:44.978Z,1.10
2022-11-20T04:18:47.385Z,0.82
2022-11-20T04:19:50.841Z,1.35
2022-11-20T04:20:53.036Z,0.80
2022-11-20T04:21:56.263Z,1.20
2022-11-20T04:22:58.483Z,1.17
2022-11-20T04:24:01.713Z,0.93
2022-11-20T04:25:04.581Z,0.85
2022-11-20T04:26:10.941Z,0.80
2022-11-20T04:27:13.049Z,1.00
2022-11-20T04:28:16.431Z,1.20
2022-11-20T04:29:19.255Z,0.70
2022-11-20T04:30:23.094Z,0.90
2022-11-20T04:31:28.859Z,0.90
2022-11-20T04:32:32.230Z,1.07
2022-11-20T04:33:35.618Z,0.90
2022-11-20T04:34:39.115Z,1.10
2022-11-20T04:35:41.612Z,0.93
2022-11-20T04:36:44.969Z,0.77
2022-11-20T04:37:47.833Z,1.10
2022-11-20T04:38:56.745Z,0.80
2022-11-20T04:39:59.883Z,0.70
2022-11-20T04:41:05.307Z,0.90
2022-11-20T04:42:27.797Z,1.27
2022-11-20T04:43:31.639Z,1.07
2022-11-20T04:44:33.877Z,0.80
2022-11-20T04:45:37.091Z,0.73
2022-11-20T04:46:43.485Z,1.15
2022-11-20T04:47:46.681Z,1.30
2022-11-20T04:48:49.406Z,0.80
2022-11-20T04:49:52.798Z,0.70
2022-11-20T04:50:55.278Z,1.33
2022-11-20T04:51:58.523Z,0.77
2022-11-20T04:53:01.048Z,0.88
2022-11-20T04:54:04.631Z,1.30
2022-11-20T04:55:08.155Z,0.90
2022-11-20T04:56:13.711Z,0.80
2022-11-20T04:57:16.610Z,1.10
2022-11-20T04:58:20.078Z,0.90
2022-11-20T04:59:22.782Z,0.70
2022-11-20T05:00:26.867Z,0.90
2022-11-20T05:01:29.724Z,0.70
2022-11-20T05:02:34.893Z,0.80
2022-11-20T05:03:42.016Z,0.60
2022-11-20T05:04:45.737Z,0.67
2022-11-20T05:05:48.025Z,0.60
2022-11-20T05:06:52.073Z,0.70
2022-11-20T05:07:54.381Z,0.80
2022-11-20T05:08:57.622Z,1.00
2022-11-20T05:09:59.950Z,0.60
2022-11-20T05:11:04.640Z,1.05
2022-11-20T05:12:09.003Z,0.77
2022-11-20T05:13:12.340Z,0.90
2022-11-20T05:14:14.800Z,0.82
2022-11-20T05:15:18.437Z,0.70
2022-11-20T05:16:22.907Z,0.88
2022-11-20T05:17:26.523Z,0.80
2022-11-20T05:18:30.297Z,0.85
2022-11-20T05:19:33.636Z,0.77
2022-11-20T05:20:37.397Z,0.60
2022-11-20T05:21:40.603Z,0.90
2022-11-20T05:22:43.153Z,0.80
2022-11-20T05:23:47.404Z,1.05
2022-11-20T05:24:49.610Z,0.60
2022-11-20T05:25:58.831Z,0.80
2022-11-20T05:27:01.746Z,0.60
2022-11-20T05:28:05.161Z,0.50
2022-11-20T05:29:07.485Z,0.70
2022-11-20T05:30:12.149Z,0.73
2022-11-20T05:31:15.860Z,0.55
2022-11-20T05:32:19.097Z,0.65
2022-11-20T05:33:21.983Z,0.65
2022-11-20T05:34:26.880Z,1.02
2022-11-20T05:35:29.145Z,0.63
2022-11-20T05:36:32.643Z,0.70
2022-11-20T05:37:34.939Z,0.70
2022-11-20T05:38:38.237Z,0.77
2022-11-20T05:39:40.510Z,0.80
2022-11-20T05:40:43.977Z,0.57
2022-11-20T05:41:47.312Z,0.70
2022-11-20T05:42:49.565Z,0.52
2022-11-20T05:43:53.638Z,0.80
2022-11-20T05:44:56.456Z,0.70
2022-11-20T05:46:00.041Z,0.80
2022-11-20T05:47:02.415Z,0.70
2022-11-20T05:48:06.025Z,0.88
2022-11-20T05:49:08.450Z,0.80
2022-11-20T05:50:13.444Z,1.25
2022-11-20T05:51:17.944Z,0.95
2022-11-20T05:52:21.503Z,0.90
2022-11-20T05:53:27.409Z,0.98
2022-11-20T05:54:31.439Z,0.80
2022-11-20T05:55:33.679Z,0.85
2022-11-20T05:56:37.476Z,1.00
2022-11-20T05:57:39.779Z,0.97
2022-11-20T05:58:43.613Z,0.90
2022-11-20T05:59:46.006Z,1.00
2022-11-20T06:00:49.611Z,0.70
2022-11-20T06:01:52.792Z,0.90
2022-11-20T06:02:56.498Z,0.85
2022-11-20T06:03:58.826Z,1.00
2022-11-20T06:05:02.305Z,0.90
2022-11-20T06:06:07.192Z,1.10
2022-11-20T06:07:10.549Z,0.80
2022-11-20T06:08:12.989Z,0.80
2022-11-20T06:09:16.473Z,0.90
2022-11-20T06:10:18.936Z,1.00
2022-11-20T06:11:22.365Z,1.15
2022-11-20T06:12:24.695Z,1.23
2022-11-20T06:13:27.956Z,1.00
2022-11-20T06:14:31.243Z,0.93
2022-11-20T06:15:33.591Z,1.13
2022-11-20T06:16:37.061Z,1.08
2022-11-20T06:17:39.303Z,1.02
2022-11-20T06:18:42.658Z,0.90
2022-11-20T06:19:44.819Z,0.80
2022-11-20T06:20:49.082Z,0.98
2022-11-20T06:21:53.052Z,0.90
2022-11-20T06:22:56.386Z,0.90
2022-11-20T06:23:58.850Z,1.00
2022-11-20T06:25:02.277Z,0.70
2022-11-20T06:26:06.184Z,0.88
2022-11-20T06:27:09.620Z,1.00
2022-11-20T06:28:11.927Z,0.90
2022-11-20T06:29:15.268Z,1.13
2022-11-20T06:30:17.617Z,0.90
2022-11-20T06:31:23.591Z,0.88
2022-11-20T06:32:25.883Z,1.20
2022-11-20T06:33:29.891Z,0.70
2022-11-20T06:34:32.244Z,2.35
2022-11-20T06:35:35.758Z,1.00
2022-11-20T06:36:39.245Z,1.05
2022-11-20T06:37:43.899Z,1.25
2022-11-20T06:38:47.654Z,0.90
2022-11-20T06:39:49.945Z,1.00
2022-11-20T06:40:53.282Z,0.93
2022-11-20T06:41:59.031Z,1.10
2022-11-20T06:43:01.753Z,1.63
2022-11-20T06:44:06.538Z,0.88
2022-11-20T06:45:10.303Z,1.10
2022-11-20T06:46:15.649Z,1.02
2022-11-20T06:47:18.051Z,0.80
2022-11-20T06:48:21.313Z,1.00
2022-11-20T06:49:23.769Z,1.10
2022-11-20T06:50:27.601Z,0.80
2022-11-20T06:51:29.799Z,0.90
2022-11-20T06:52:33.149Z,0.93
2022-11-20T06:53:37.800Z,1.25
2022-11-20T06:54:41.173Z,1.30
2022-11-20T06:55:44.883Z,1.20
2022-11-20T06:56:49.446Z,1.25
2022-11-20T06:57:55.843Z,0.90
2022-11-20T06:58:59.451Z,1.42
2022-11-20T07:00:01.796Z,0.82
2022-11-20T07:01:07.972Z,1.30
2022-11-20T07:02:11.908Z,0.82
2022-11-20T07:03:15.571Z,1.30
2022-11-20T07:04:17.906Z,1.30
2022-11-20T07:05:21.214Z,1.35
2022-11-20T07:06:24.600Z,1.00
2022-11-20T07:07:27.182Z,1.65
2022-11-20T07:08:30.572Z,0.98
2022-11-20T07:09:34.673Z,0.95
2022-11-20T07:10:38.292Z,1.30
2022-11-20T07:11:41.576Z,1.27
2022-11-20T07:12:43.825Z,1.50
2022-11-20T07:13:47.321Z,1.45
2022-11-20T07:14:49.777Z,1.20
2022-11-20T07:15:53.117Z,1.40
2022-11-20T07:16:55.280Z,1.00
2022-11-20T07:18:01.323Z,1.40
2022-11-20T07:19:03.517Z,1.45
2022-11-20T07:20:07.463Z,1.20
2022-11-20T07:21:11.581Z,1.30
2022-11-20T07:22:14.864Z,1.53
2022-11-20T07:23:17.228Z,1.30
2022-11-20T07:24:20.613Z,1.30
2022-11-20T07:25:24.908Z,1.33
2022-11-20T07:26:28.608Z,1.75
2022-11-20T07:27:31.104Z,1.33
2022-11-20T07:28:34.830Z,1.00
2022-11-20T07:29:37.284Z,1.15
2022-11-20T07:30:40.726Z,1.73
2022-11-20T07:31:43.138Z,0.98
2022-11-20T07:32:49.516Z,1.53
2022-11-20T07:33:52.800Z,2.33
2022-11-20T07:34:55.054Z,1.08
2022-11-20T07:36:00.415Z,1.70
2022-11-20T07:37:07.440Z,1.60
2022-11-20T07:38:13.648Z,1.40
2022-11-20T07:39:15.891Z,1.52
2022-11-20T07:40:19.842Z,1.48
2022-11-20T07:41:23.952Z,1.40
2022-11-20T07:42:27.157Z,1.48
2022-11-20T07:43:30.412Z,1.30
2022-11-20T07:44:32.681Z,1.10
2022-11-20T07:45:35.970Z,1.50
2022-11-20T07:46:38.203Z,1.38
2022-11-20T07:47:41.454Z,1.35
2022-11-20T07:48:44.688Z,1.50
2022-11-20T07:49:47.147Z,1.42
2022-11-20T07:50:50.466Z,1.48
2022-11-20T07:51:54.769Z,1.27
2022-11-20T07:53:04.788Z,1.23
2022-11-20T07:54:08.283Z,1.27
2022-11-20T07:55:11.490Z,1.48
2022-11-20T07:56:15.581Z,1.40
2022-11-20T07:57:20.468Z,1.45
2022-11-20T07:58:25.393Z,1.08
2022-11-20T07:59:28.771Z,1.40
2022-11-20T08:00:30.944Z,1.30
2022-11-20T08:01:34.288Z,1.45
2022-11-20T08:02:39.994Z,1.27
2022-11-20T08:03:43.201Z,1.17
2022-11-20T08:04:45.387Z,1.23
2022-11-20T08:05:48.765Z,1.25
2022-11-20T08:06:50.911Z,1.17
2022-11-20T08:07:54.107Z,1.08
2022-11-20T08:08:56.447Z,1.13
2022-11-20T08:09:59.926Z,1.30
2022-11-20T08:11:16.895Z,1.33
2022-11-20T08:12:40.375Z,1.30
2022-11-20T08:14:01.354Z,1.55
2022-11-20T08:15:09.808Z,1.75
2022-11-20T08:16:14.846Z,1.80
2022-11-20T08:17:18.099Z,2.47
2022-11-20T08:18:31.134Z,2.40
2022-11-20T08:19:35.290Z,2.00
2022-11-20T08:20:37.737Z,1.50
2022-11-20T08:21:41.322Z,1.95
2022-11-20T08:22:43.551Z,1.30
2022-11-20T08:23:47.053Z,1.60
2022-11-20T08:24:50.434Z,1.80
2022-11-20T08:25:52.972Z,1.30
2022-11-20T08:26:56.630Z,1.33
2022-11-20T08:28:08.950Z,1.45
2022-11-20T08:29:19.389Z,1.55
2022-11-20T08:30:21.794Z,1.52
2022-11-20T08:31:25.896Z,1.50
2022-11-20T08:32:27.992Z,1.35
2022-11-20T08:33:33.719Z,1.30
2022-11-20T08:34:36.962Z,1.40
2022-11-20T08:35:39.684Z,1.20
2022-11-20T08:36:42.823Z,1.50
2022-11-20T08:37:48.037Z,1.10
2022-11-20T08:38:52.294Z,1.30
2022-11-20T08:39:55.269Z,1.70
2022-11-20T08:41:17.100Z,1.50
2022-11-20T08:42:20.500Z,1.23
2022-11-20T08:43:24.105Z,1.40
2022-11-20T08:44:27.428Z,1.58
2022-11-20T08:45:33.985Z,1.05
2022-11-20T08:46:40.384Z,1.20
2022-11-20T08:47:43.130Z,1.58
2022-11-20T08:48:46.858Z,1.77
2022-11-20T08:49:50.311Z,1.70
2022-11-20T08:50:52.702Z,1.52
2022-11-20T08:51:56.467Z,1.38
2022-11-20T08:53:04.644Z,1.50
2022-11-20T08:54:09.639Z,1.50
2022-11-20T08:55:12.216Z,1.90
2022-11-20T08:56:16.027Z,1.73
2022-11-20T08:57:18.355Z,1.63
2022-11-20T08:58:21.792Z,1.85
2022-11-20T08:59:50.941Z,1.90
2022-11-20T09:00:48.970Z,1.92
2022-11-20T09:01:52.209Z,1.70
2022-11-20T09:02:54.358Z,1.65
2022-11-20T09:03:58.744Z,1.88
2022-11-20T09:05:03.372Z,1.90
2022-11-20T09:06:09.537Z,1.80
2022-11-20T09:07:12.187Z,1.48
2022-11-20T09:08:15.593Z,1.60
2022-11-20T09:09:19.327Z,1.90
2022-11-20T09:10:24.427Z,1.93
2022-11-20T09:11:28.356Z,1.73
2022-11-20T09:12:30.667Z,1.92
2022-11-20T09:13:35.594Z,2.00
2022-11-20T09:14:40.158Z,1.80
2022-11-20T09:15:42.425Z,1.60
2022-11-20T09:16:47.221Z,2.00
2022-11-20T09:17:52.731Z,1.92
2022-11-20T09:19:20.182Z,1.90
2022-11-20T09:20:19.892Z,1.70
2022-11-20T09:21:24.004Z,1.60
2022-11-20T09:22:27.882Z,1.60
2022-11-20T09:23:34.681Z,1.50
2022-11-20T09:24:38.226Z,2.13
2022-11-20T09:25:40.435Z,1.63
2022-11-20T09:26:43.717Z,1.90
2022-11-20T09:27:47.333Z,3.25
2022-11-20T09:28:55.343Z,1.85
2022-11-20T09:30:00.593Z,1.60
2022-11-20T09:31:07.423Z,1.80
2022-11-20T09:32:09.816Z,1.50
2022-11-20T09:33:13.548Z,1.50
2022-11-20T09:34:16.809Z,1.40
2022-11-20T09:35:20.545Z,1.40
2022-11-20T09:36:23.857Z,1.50
2022-11-20T09:37:27.096Z,1.52
2022-11-20T09:38:30.531Z,1.60
2022-11-20T09:39:33.927Z,1.38
2022-11-20T09:40:40.334Z,1.50
2022-11-20T09:42:05.956Z,1.33
2022-11-20T09:43:17.860Z,1.40
2022-11-20T09:44:34.332Z,1.48
2022-11-20T09:45:56.598Z,1.58
2022-11-20T09:47:08.842Z,1.73
2022-11-20T09:48:37.858Z,1.50
2022-11-20T09:49:56.598Z,1.67
2022-11-20T09:51:08.371Z,1.67
2022-11-20T09:52:24.193Z,1.40
2022-11-20T09:53:35.091Z,1.50
2022-11-20T09:54:41.510Z,1.48
2022-11-20T09:55:44.281Z,1.53
2022-11-20T09:56:52.285Z,1.88
2022-11-20T09:57:56.654Z,1.70
2022-11-20T09:59:03.604Z,1.80
2022-11-20T10:00:12.506Z,1.90
2022-11-20T10:01:20.422Z,1.52
2022-11-20T10:02:33.264Z,1.40
2022-11-20T10:03:44.217Z,1.30
2022-11-20T10:04:53.791Z,1.55
2022-11-20T10:05:57.757Z,1.70
2022-11-20T10:07:33.613Z,1.77
2022-11-20T10:08:34.039Z,1.60
2022-11-20T10:09:38.387Z,1.50
2022-11-20T10:10:47.355Z,1.65
2022-11-20T10:12:07.839Z,1.20
2022-11-20T10:13:31.047Z,1.27
2022-11-20T10:14:48.385Z,1.73
2022-11-20T10:16:05.653Z,1.90
2022-11-20T10:17:20.697Z,1.77
2022-11-20T10:18:41.056Z,1.42
2022-11-20T10:19:56.561Z,1.90
2022-11-20T10:21:08.495Z,1.55
2022-11-20T10:22:23.260Z,1.20
2022-11-20T10:23:44.696Z,1.35
2022-11-20T10:24:57.404Z,1.50
2022-11-20T10:26:03.328Z,1.35
2022-11-20T10:27:26.979Z,1.42
2022-11-20T10:28:39.663Z,1.55
2022-11-20T10:29:47.916Z,1.48
2022-11-20T10:30:57.965Z,1.60
2022-11-20T10:32:04.890Z,1.60
2022-11-20T10:33:19.206Z,1.40
2022-11-20T10:34:27.564Z,1.55
2022-11-20T10:35:39.064Z,1.45
2022-11-20T10:36:46.258Z,1.67
2022-11-20T10:37:55.560Z,1.65
2022-11-20T10:39:02.164Z,1.30
2022-11-20T10:40:19.764Z,1.30
2022-11-20T10:41:27.000Z,1.45
2022-11-20T10:42:37.917Z,1.38
2022-11-20T10:43:40.433Z,1.33
2022-11-20T10:45:06.894Z,1.40
2022-11-20T10:46:15.353Z,1.23
2022-11-20T10:47:22.100Z,1.33
2022-11-20T10:48:28.990Z,1.48
2022-11-20T10:49:35.415Z,1.13
2022-11-20T10:50:43.152Z,1.40
2022-11-20T10:52:01.652Z,1.27
2022-11-20T10:53:11.582Z,1.20
2022-11-20T10:54:23.074Z,1.65
2022-11-20T10:55:35.211Z,1.30
2022-11-20T10:56:48.475Z,1.13
2022-11-20T10:58:00.396Z,1.00
2022-11-20T10:59:37.946Z,1.40
2022-11-20T11:00:41.275Z,1.30
2022-11-20T11:01:43.983Z,1.20
2022-11-20T11:02:50.331Z,1.30
2022-11-20T11:03:57.128Z,1.30
2022-11-20T11:05:10.385Z,1.20
2022-11-20T11:06:28.336Z,1.40
2022-11-20T11:07:38.337Z,1.47
2022-11-20T11:08:41.292Z,1.40
2022-11-20T11:09:49.009Z,1.35
2022-11-20T11:10:56.102Z,1.50
2022-11-20T11:12:02.918Z,1.40
2022-11-20T11:13:09.420Z,1.30
2022-11-20T11:14:13.262Z,1.58
2022-11-20T11:15:27.798Z,1.20
2022-11-20T11:16:30.056Z,1.20
2022-11-20T11:17:34.696Z,1.20
2022-11-20T11:18:36.999Z,1.50
2022-11-20T11:19:41.655Z,1.20
2022-11-20T11:20:52.607Z,1.40
2022-11-20T11:21:57.803Z,1.15
2022-11-20T11:23:02.313Z,1.60
2022-11-20T11:24:34.841Z,1.50
2022-11-20T11:25:34.762Z,1.30
2022-11-20T11:26:37.155Z,1.17
2022-11-20T11:27:48.848Z,1.70
2022-11-20T11:28:56.549Z,1.58
2022-11-20T11:30:16.358Z,1.50
2022-11-20T11:31:25.983Z,1.30
2022-11-20T11:32:28.410Z,1.60
2022-11-20T11:33:34.656Z,1.50
2022-11-20T11:34:37.176Z,1.30
2022-11-20T11:35:51.417Z,1.27
2022-11-20T11:36:58.362Z,1.30
2022-11-20T11:38:08.126Z,1.15
2022-11-20T11:39:15.963Z,1.50
2022-11-20T11:40:25.184Z,1.23
2022-11-20T11:41:34.245Z,1.57
2022-11-20T11:42:36.961Z,0.98
2022-11-20T11:43:58.823Z,1.40
2022-11-20T11:45:09.343Z,1.80
2022-11-20T11:46:33.113Z,1.45
2022-11-20T11:47:46.308Z,1.33
2022-11-20T11:48:58.480Z,1.50
2022-11-20T11:50:18.122Z,1.65
2022-11-20T11:51:23.334Z,1.50
2022-11-20T11:52:27.865Z,1.42
2022-11-20T11:53:32.473Z,1.47
2022-11-20T11:54:39.960Z,1.27
2022-11-20T11:55:48.008Z,1.50
2022-11-20T11:56:52.232Z,1.70
2022-11-20T11:58:03.157Z,1.52
2022-11-20T11:59:14.716Z,1.50
2022-11-20T12:00:22.094Z,1.73
2022-11-20T12:01:33.935Z,1.40
2022-11-20T12:02:40.937Z,1.45
2022-11-20T12:04:00.575Z,1.48
2022-11-20T12:05:15.556Z,1.67
2022-11-20T12:06:18.784Z,1.83
2022-11-20T12:07:46.582Z,1.48
2022-11-20T12:08:56.132Z,1.58
2022-11-20T12:09:59.826Z,1.40
2022-11-20T12:11:08.750Z,1.50
2022-11-20T12:12:16.629Z,1.40
2022-11-20T12:13:40.364Z,1.45
2022-11-20T12:14:48.666Z,1.95
2022-11-20T12:15:51.249Z,1.40
2022-11-20T12:16:56.869Z,1.40
2022-11-20T12:17:59.111Z,1.58
2022-11-20T12:19:02.591Z,1.70
2022-11-20T12:20:13.219Z,1.70
2022-11-20T12:21:25.508Z,1.50
2022-11-20T12:22:35.578Z,1.45
2022-11-20T12:23:47.635Z,1.83
2022-11-20T12:24:57.658Z,1.63
2022-11-20T12:26:07.659Z,1.67
2022-11-20T12:27:34.723Z,1.65
2022-11-20T12:28:51.328Z,1.67
2022-11-20T12:30:01.027Z,2.08
2022-11-20T12:31:23.455Z,1.98
2022-11-20T12:32:52.606Z,1.70
2022-11-20T12:34:12.085Z,1.65
2022-11-20T12:35:32.783Z,2.50
2022-11-20T12:36:43.248Z,1.95
2022-11-20T12:37:59.574Z,2.25
2022-11-20T12:39:14.252Z,1.48
2022-11-20T12:40:31.070Z,1.67
2022-11-20T12:42:07.555Z,1.83
2022-11-20T12:43:39.004Z,1.98
2022-11-20T12:45:11.080Z,1.67
2022-11-20T12:46:38.483Z,1.90
2022-11-20T12:48:14.749Z,1.38
2022-11-20T12:49:38.555Z,1.80
2022-11-20T12:51:13.306Z,1.65
2022-11-20T12:52:33.215Z,1.70
2022-11-20T12:53:44.561Z,2.13
2022-11-20T12:55:12.116Z,1.70
2022-11-20T12:56:27.966Z,1.30
2022-11-20T12:57:38.531Z,1.50
2022-11-20T12:58:50.232Z,1.50
2022-11-20T13:00:15.080Z,1.40
2022-11-20T13:01:41.550Z,1.38
2022-11-20T13:03:22.948Z,1.40
2022-11-20T13:04:50.635Z,1.60
2022-11-20T13:06:01.799Z,1.88
2022-11-20T13:07:06.909Z,1.42
2022-11-20T13:08:21.905Z,1.50
2022-11-20T13:09:27.298Z,1.50
2022-11-20T13:10:38.591Z,1.70
2022-11-20T13:11:47.262Z,1.70
2022-11-20T13:12:56.084Z,1.70
2022-11-20T13:14:22.244Z,1.60
2022-11-20T13:15:37.710Z,1.30
2022-11-20T13:16:48.591Z,1.50
2022-11-20T13:17:56.756Z,1.27
2022-11-20T13:19:04.783Z,1.35
2022-11-20T13:20:13.540Z,1.75
2022-11-20T13:21:18.648Z,1.73
2022-11-20T13:22:28.388Z,1.10
2022-11-20T13:23:31.869Z,1.00
2022-11-20T13:24:35.463Z,1.20
2022-11-20T13:25:40.245Z,1.77
2022-11-20T13:26:42.578Z,1.73
2022-11-20T13:27:50.129Z,1.70
2022-11-20T13:29:06.220Z,2.42
2022-11-20T13:30:20.278Z,1.90
2022-11-20T13:31:32.242Z,2.70
2022-11-20T13:32:35.626Z,2.00
2022-11-20T13:33:39.414Z,2.72
2022-11-20T13:34:54.158Z,2.65
2022-11-20T13:35:59.035Z,1.92
2022-11-20T13:37:04.905Z,2.15
2022-11-20T13:38:09.963Z,2.15
2022-11-20T13:39:13.354Z,2.33
2022-11-20T13:40:24.137Z,1.83
2022-11-20T13:41:32.543Z,2.03
2022-11-20T13:42:37.783Z,2.30
2022-11-20T13:43:44.079Z,2.13
2022-11-20T13:44:52.088Z,2.30
2022-11-20T13:46:02.671Z,2.38
2022-11-20T13:47:20.820Z,2.00
2022-11-20T13:48:25.725Z,1.80
2022-11-20T13:49:33.994Z,2.15
2022-11-20T13:50:47.379Z,1.60
2022-11-20T13:51:53.669Z,1.80
2022-11-20T13:53:03.441Z,2.08
2022-11-20T13:54:36.588Z,1.60
2022-11-20T13:55:47.531Z,2.10
2022-11-20T13:57:01.596Z,1.95
2022-11-20T13:58:33.978Z,1.45
2022-11-20T13:59:58.674Z,2.47
2022-11-20T14:01:10.880Z,1.55
2022-11-20T14:02:15.917Z,1.90
2022-11-20T14:03:50.807Z,1.80
2022-11-20T14:04:50.272Z,1.65
2022-11-20T14:05:56.976Z,1.60
2022-11-20T14:06:59.905Z,1.30
2022-11-20T14:08:05.993Z,1.53
2022-11-20T14:09:14.276Z,1.58
2022-11-20T14:10:28.488Z,1.50
2022-11-20T14:11:36.883Z,1.60
2022-11-20T14:12:39.092Z,1.40
2022-11-20T14:13:52.677Z,1.23
2022-11-20T14:14:56.797Z,1.50
2022-11-20T14:16:00.599Z,1.00
2022-11-20T14:17:10.956Z,1.33
2022-11-20T14:18:15.382Z,1.35
2022-11-20T14:19:31.465Z,1.50
2022-11-20T14:20:35.329Z,1.38
2022-11-20T14:21:38.713Z,1.40
2022-11-20T14:22:49.504Z,1.60
2022-11-20T14:23:55.902Z,1.13
2022-11-20T14:25:09.029Z,1.40
2022-11-20T14:26:15.863Z,1.50
2022-11-20T14:27:23.569Z,1.73
2022-11-20T14:28:29.835Z,1.42
2022-11-20T14:29:36.963Z,1.38
2022-11-20T14:30:45.415Z,1.70
2022-11-20T14:31:54.263Z,1.30
2022-11-20T14:33:02.757Z,1.38
2022-11-20T14:34:05.043Z,1.33
2022-11-20T14:35:12.301Z,1.20
2022-11-20T14:36:19.663Z,1.63
2022-11-20T14:37:26.926Z,1.15
2022-11-20T14:38:33.808Z,1.23
2022-11-20T14:39:41.472Z,1.58
2022-11-20T14:40:44.943Z,1.77
2022-11-20T14:41:52.804Z,1.60
2022-11-20T14:42:58.317Z,1.52
2022-11-20T14:44:03.338Z,1.13
2022-11-20T14:45:06.748Z,1.83
2022-11-20T14:46:12.186Z,1.40
2022-11-20T14:47:19.291Z,1.10